Time;durP1;ratioP1;P1;durP2;ratioP2;P2;SDS_P1;SDS_P2;PMS_P1;PMS_P2;Temp;Humidity;BMP_temperature;BMP_pressure;BME280_temperature;BME280_humidity;BME280_pressure;Samples;Min_cycle;Max_cycle;Signal;HPM_P1;HPM_P2
2023/03/08 00:00:12;;;;;;;;;23.67;21.00;;;;;9.28;60.93;99807.78;2021892;28;3572134;-74
2023/03/08 00:01:23;;;;;;;;;26.50;23.50;;;;;9.29;60.90;99812.09;2025867;27;2850280;-74
2023/03/08 00:02:34;;;;;;;;;23.50;20.00;;;;;9.27;60.63;99811.31;2002552;27;2836031;-74
2023/03/08 00:03:46;;;;;;;;;27.67;22.33;;;;;9.25;61.00;99800.03;2021429;28;3570019;-74
2023/03/08 00:04:58;;;;;;;;;24.67;19.67;;;;;9.22;60.94;99807.13;2024907;28;3575228;-74
2023/03/08 00:06:13;;;;;;;;;27.60;25.00;;;;;9.23;60.58;99807.97;2028260;28;3581445;-74
2023/03/08 00:07:23;;;;;;;;;24.50;21.50;;;;;9.19;60.72;99799.38;2019109;27;2840866;-74
2023/03/08 00:08:36;;;;;;;;;30.29;25.29;;;;;9.19;61.01;99790.66;2019088;28;3588770;-74
2023/03/08 00:09:48;;;;;;;;;23.00;19.60;;;;;9.18;61.03;99796.81;2009591;28;3586681;-74
2023/03/08 00:11:04;;;;;;;;;29.00;21.33;;;;;9.17;60.79;99795.09;2035944;27;3580440;-74
2023/03/08 00:12:18;;;;;;;;;25.67;21.67;;;;;9.15;61.05;99789.94;2023222;28;3572610;-74
2023/03/08 00:13:29;;;;;;;;;23.00;18.00;;;;;9.16;60.99;99782.94;2023932;27;3575263;-74
2023/03/08 00:14:41;;;;;;;;;23.00;22.67;;;;;9.14;61.31;99782.97;2028924;27;3579414;-74
2023/03/08 00:15:57;;;;;;;;;23.40;21.20;;;;;9.13;60.90;99786.53;2044370;27;3583549;-74
2023/03/08 00:17:08;;;;;;;;;23.00;18.33;;;;;9.11;61.39;99783.13;2022865;27;3568949;-74
2023/03/08 00:18:20;;;;;;;;;29.00;24.67;;;;;9.09;61.02;99784.94;2041622;28;3570062;-74
2023/03/08 00:19:33;;;;;;;;;29.83;23.33;;;;;9.08;61.10;99775.38;2058011;27;2835654;-74
2023/03/08 00:20:45;;;;;;;;;26.67;22.33;;;;;9.06;61.85;99778.06;2017561;28;3580464;-74
2023/03/08 00:21:57;;;;;;;;;27.33;23.67;;;;;9.05;61.45;99780.75;2040760;27;3559615;-74
2023/03/08 00:23:09;;;;;;;;;24.67;23.00;;;;;9.04;61.19;99785.13;2039595;27;3567975;-74
2023/03/08 00:24:21;;;;;;;;;29.00;22.67;;;;;9.03;60.95;99774.72;2036670;27;3591975;-74
2023/03/08 00:25:33;;;;;;;;;24.60;18.20;;;;;9.02;61.59;99767.75;2043738;27;3589791;-74
2023/03/08 00:26:46;;;;;;;;;23.00;19.67;;;;;9.01;61.62;99777.44;2051874;28;2846047;-74
2023/03/08 00:27:57;;;;;;;;;25.33;22.33;;;;;8.99;61.78;99779.22;2018084;28;3586717;-74
2023/03/08 00:29:10;;;;;;;;;26.00;18.20;;;;;8.97;61.49;99771.44;2044704;28;3596398;-74
2023/03/08 00:30:21;;;;;;;;;26.33;19.00;;;;;8.97;61.54;99766.19;2009433;28;3585663;-74
2023/03/08 00:31:33;;;;;;;;;29.67;24.00;;;;;8.97;61.57;99768.81;2037006;28;3585668;-74
2023/03/08 00:32:45;;;;;;;;;24.33;20.67;;;;;8.97;61.57;99760.97;2038601;27;3575252;-74
2023/03/08 00:33:56;;;;;;;;;21.50;17.75;;;;;8.97;61.69;99755.72;2049372;28;1833618;-74
2023/03/08 00:35:09;;;;;;;;;18.60;14.40;;;;;8.96;61.59;99759.25;2019691;28;2810628;-74
2023/03/08 00:36:21;;;;;;;;;27.20;21.80;;;;;8.96;61.85;99764.47;2013052;27;3591861;-74
2023/03/08 00:37:32;;;;;;;;;21.50;20.50;;;;;8.95;62.04;99752.31;2023068;28;2822545;-74
2023/03/08 00:38:45;;;;;;;;;25.33;21.00;;;;;8.94;61.98;99753.22;2017362;28;3587751;-74
2023/03/08 00:39:56;;;;;;;;;25.67;20.67;;;;;8.93;62.08;99753.28;2023736;27;3562728;-74
2023/03/08 00:41:08;;;;;;;;;22.33;22.33;;;;;8.91;62.07;99748.13;2039811;27;3570020;-74
2023/03/08 00:42:21;;;;;;;;;21.00;18.33;;;;;8.89;62.13;99753.41;2031830;27;3575232;-74
2023/03/08 00:43:32;;;;;;;;;23.67;21.33;;;;;8.87;62.27;99743.91;2023143;28;3568001;-74
2023/03/08 00:44:44;;;;;;;;;24.00;20.67;;;;;8.86;62.34;99742.22;2037744;28;3567945;-74
2023/03/08 00:45:56;;;;;;;;;22.00;20.33;;;;;8.84;62.36;99733.56;2039201;27;2828961;-74
2023/03/08 00:47:09;;;;;;;;;22.00;15.67;;;;;8.84;62.31;99728.34;2052405;27;1831623;-74
2023/03/08 00:48:20;;;;;;;;;15.50;15.50;;;;;8.83;62.27;99724.00;2000141;27;2813856;-74
2023/03/08 00:49:32;;;;;;;;;23.00;19.67;;;;;8.83;62.38;99727.47;2001690;28;3575208;-74
2023/03/08 00:50:44;;;;;;;;;25.33;19.67;;;;;8.83;62.70;99717.00;2041262;28;3569014;-74
2023/03/08 00:51:55;;;;;;;;;25.00;21.40;;;;;8.82;62.40;99717.03;2042815;27;3573165;-74
2023/03/08 00:53:07;;;;;;;;;25.00;20.33;;;;;8.84;62.64;99712.63;2040147;28;3577304;-74
2023/03/08 00:54:19;;;;;;;;;22.40;19.00;;;;;8.82;63.05;99709.19;2030885;28;3573101;-74
2023/03/08 00:55:31;;;;;;;;;21.80;20.40;;;;;8.82;62.22;99706.56;2045454;28;3576306;-74
2023/03/08 00:56:43;;;;;;;;;19.33;17.00;;;;;8.83;62.70;99703.03;2041327;28;3571074;-74
2023/03/08 00:57:55;;;;;;;;;24.33;22.00;;;;;8.83;63.23;99700.41;2040814;27;3574211;-74
2023/03/08 00:59:07;;;;;;;;;17.67;17.67;;;;;8.82;62.83;99688.22;2038853;28;3572107;-74
2023/03/08 01:00:20;;;;;;;;;19.83;18.00;;;;;8.83;62.92;99688.19;2050224;28;2831480;-74
2023/03/08 01:01:32;;;;;;;;;25.00;20.00;;;;;8.84;62.65;99681.16;1999464;28;3581485;-74
2023/03/08 01:02:43;;;;;;;;;24.50;21.00;;;;;8.84;62.93;99679.38;2036160;27;2835698;-74
2023/03/08 01:03:56;;;;;;;;;24.50;20.83;;;;;8.85;62.97;99680.25;2028523;28;2839836;-74
2023/03/08 01:05:09;;;;;;;;;24.83;20.67;;;;;8.84;63.15;99673.31;2027543;28;2839840;-74
2023/03/08 01:06:21;;;;;;;;;28.33;21.67;;;;;8.83;62.95;99668.97;1998636;27;3578317;-74
2023/03/08 01:07:34;;;;;;;;;27.86;23.43;;;;;8.84;63.13;99670.69;2053166;28;2853369;-74
2023/03/08 01:08:46;;;;;;;;;23.00;19.00;;;;;8.84;63.11;99660.22;2021595;28;3571078;-74
2023/03/08 01:09:57;;;;;;;;;27.33;25.00;;;;;8.84;63.49;99666.28;2038327;28;3583954;-74
2023/03/08 01:11:23;;;;;;;;;30.33;24.00;;;;;8.85;63.02;99656.66;2038055;28;3601290;-74
2023/03/08 01:12:35;;;;;;;;;20.33;19.33;;;;;8.85;63.10;99649.66;1992461;28;3569379;-74
2023/03/08 01:13:47;;;;;;;;;18.50;16.50;;;;;8.86;63.11;99647.88;2023669;27;2823175;-74
2023/03/08 01:14:58;;;;;;;;;20.67;19.00;;;;;8.85;62.91;99652.28;2000478;27;3571089;-74
2023/03/08 01:16:20;;;;;;;;;23.67;22.00;;;;;8.84;63.45;99649.72;2032310;27;3577319;-74
2023/03/08 01:17:31;;;;;;;;;23.33;19.33;;;;;8.82;63.28;99635.81;2020277;28;3566907;-74
2023/03/08 01:18:43;;;;;;;;;21.67;18.67;;;;;8.81;63.52;99629.75;2039692;28;3569042;-74
2023/03/08 01:19:55;;;;;;;;;20.20;19.20;;;;;8.81;63.12;99629.75;2035763;27;3573125;-74
2023/03/08 01:21:07;;;;;;;;;22.67;21.00;;;;;8.80;63.26;99628.03;2040069;28;2829449;-74
2023/03/08 01:22:18;;;;;;;;;21.00;19.67;;;;;8.80;62.91;99633.28;2023469;27;3565870;-74
2023/03/08 01:23:31;;;;;;;;;27.33;22.67;;;;;8.81;63.56;99635.00;2039827;27;3581489;-74
2023/03/08 01:24:47;;;;;;;;;20.33;19.33;;;;;8.81;63.52;99628.88;2024320;28;3567956;-74
2023/03/08 01:26:04;;;;;;;;;27.67;21.67;;;;;8.80;63.04;99624.56;2024327;28;3589814;-74
2023/03/08 01:27:15;;;;;;;;;23.50;18.00;;;;;8.81;63.37;99621.88;2017999;28;2829441;-74
2023/03/08 01:28:28;;;;;;;;;17.33;17.00;;;;;8.81;63.15;99629.75;2016457;28;2823303;-74
2023/03/08 01:29:39;;;;;;;;;21.67;20.67;;;;;8.82;63.96;99620.09;2024152;28;3578348;-74
2023/03/08 01:30:51;;;;;;;;;24.33;22.00;;;;;8.81;63.45;99614.03;2039506;27;3579399;-74
2023/03/08 01:32:03;;;;;;;;;23.33;21.00;;;;;8.82;63.44;99612.22;2037470;27;3569005;-74
2023/03/08 01:33:15;;;;;;;;;26.67;19.33;;;;;8.82;63.99;99614.84;2032432;28;3596096;-74
2023/03/08 01:34:26;;;;;;;;;25.33;22.00;;;;;8.77;63.58;99602.81;2030955;28;3578861;-74
2023/03/08 01:35:38;;;;;;;;;21.33;19.33;;;;;8.76;63.60;99598.50;2039868;28;2828454;-74
2023/03/08 01:36:49;;;;;;;;;26.00;24.00;;;;;8.76;63.81;99592.41;2025273;28;2844003;-74
2023/03/08 01:38:01;;;;;;;;;25.67;22.67;;;;;8.77;63.60;99591.47;2039899;27;3571068;-74
2023/03/08 01:39:13;;;;;;;;;25.67;21.00;;;;;8.79;63.96;99584.41;2041813;27;3581506;-74
2023/03/08 01:40:24;;;;;;;;;19.40;16.20;;;;;8.80;63.93;99582.63;2050320;28;1841985;-74
2023/03/08 01:41:36;;;;;;;;;26.67;19.67;;;;;8.80;64.07;99585.25;2022922;28;3588813;-74
2023/03/08 01:42:48;;;;;;;;;22.40;20.00;;;;;8.80;63.63;99580.00;2024107;28;3565818;-74
2023/03/08 01:44:00;;;;;;;;;21.67;21.00;;;;;8.81;63.78;99579.09;2036105;28;3568994;-74
2023/03/08 01:45:48;;;;;;;;;23.00;17.75;;;;;8.83;64.08;99582.50;2049736;27;1842048;-74
2023/03/08 01:47:02;;;;;;;;;23.67;21.33;;;;;8.83;63.76;99579.88;2030844;27;1844056;-74
2023/03/08 01:48:14;;;;;;;;;25.00;21.00;;;;;8.83;63.50;99579.88;2000774;27;3571093;-74
2023/03/08 01:49:33;;;;;;;;;22.00;17.00;;;;;8.84;63.81;99578.97;2024822;28;2825753;-74
2023/03/08 01:50:45;;;;;;;;;22.33;19.33;;;;;8.84;64.03;99582.41;2025109;27;2829562;-74
2023/03/08 01:52:11;;;;;;;;;23.67;20.33;;;;;8.84;63.84;99573.75;2024690;28;3572126;-74
2023/03/08 01:53:23;;;;;;;;;19.67;18.33;;;;;8.82;63.64;99576.41;2032028;27;3566922;-74
2023/03/08 01:54:57;;;;;;;;;23.33;20.67;;;;;8.84;64.16;99571.13;2031975;27;3579474;-74
2023/03/08 01:56:12;;;;;;;;;22.00;20.00;;;;;8.83;63.87;99561.53;2024286;28;3579406;-74
2023/03/08 01:57:39;;;;;;;;;21.33;18.67;;;;;8.82;64.29;99558.06;2015884;28;2830603;-74
2023/03/08 01:58:51;;;;;;;;;22.00;20.33;;;;;8.80;64.19;99554.66;2015967;28;3581470;-74
2023/03/08 02:00:10;;;;;;;;;27.67;22.67;;;;;8.77;64.09;99542.56;2024399;28;3573180;-74
2023/03/08 02:01:22;;;;;;;;;25.67;21.33;;;;;8.77;63.92;99539.94;2024845;27;3588200;-74
2023/03/08 02:02:41;;;;;;;;;14.40;14.00;;;;;8.77;64.11;99534.69;2051651;28;1837779;-74
2023/03/08 02:03:55;;;;;;;;;27.86;22.29;;;;;8.77;64.32;99534.69;2050861;28;1842030;-74
2023/03/08 02:05:10;;;;;;;;;20.00;18.83;;;;;8.77;64.01;99537.31;2049582;28;1834676;-74
2023/03/08 02:06:21;;;;;;;;;19.00;16.33;;;;;8.76;64.43;99526.91;2001138;28;3568370;-74
2023/03/08 02:07:32;;;;;;;;;20.00;16.00;;;;;8.74;64.07;99534.00;2035001;28;2826332;-74
2023/03/08 02:08:44;;;;;;;;;22.00;19.00;;;;;8.71;64.11;99528.88;2019572;28;3573113;-74
2023/03/08 02:09:56;;;;;;;;;17.67;16.00;;;;;8.69;64.33;99515.88;2039134;28;3561168;-74
2023/03/08 02:11:10;;;;;;;;;25.00;20.60;;;;;8.72;64.26;99525.31;2050232;28;1839872;-74
2023/03/08 02:12:22;;;;;;;;;18.67;17.33;;;;;8.70;64.16;99521.94;1998777;28;3557555;-74
2023/03/08 02:13:33;;;;;;;;;24.00;22.33;;;;;8.71;64.44;99514.03;2021957;28;3579449;-74
2023/03/08 02:14:45;;;;;;;;;22.33;19.33;;;;;8.71;64.43;99514.03;2036731;27;3573164;-74
2023/03/08 02:15:59;;;;;;;;;21.00;16.67;;;;;8.70;64.46;99496.59;2038683;27;3573176;-73
2023/03/08 02:17:11;;;;;;;;;24.00;18.67;;;;;8.70;64.53;99499.22;2024492;27;3561687;-73
2023/03/08 02:18:22;;;;;;;;;20.00;19.00;;;;;8.71;64.17;99495.69;2025487;28;3573205;-74
2023/03/08 02:19:45;;;;;;;;;21.67;20.67;;;;;8.73;64.35;99499.09;2038973;27;3570039;-74
2023/03/08 02:20:56;;;;;;;;;22.00;15.67;;;;;8.72;64.03;99502.59;2024041;28;3566927;-74
2023/03/08 02:22:10;;;;;;;;;23.67;21.33;;;;;8.72;64.35;99499.13;2030797;28;3579402;-74
2023/03/08 02:23:24;;;;;;;;;19.33;18.17;;;;;8.72;64.67;99504.38;2053658;27;1844104;-74
2023/03/08 02:24:35;;;;;;;;;20.00;16.50;;;;;8.71;64.09;99500.94;2001515;27;2822156;-74
2023/03/08 02:25:57;;;;;;;;;20.17;16.83;;;;;8.69;64.50;99494.06;2030805;28;2832557;-74
2023/03/08 02:27:16;;;;;;;;;27.00;21.40;;;;;8.69;64.19;99494.06;2020487;28;2842926;-74
2023/03/08 02:28:29;;;;;;;;;19.60;18.80;;;;;8.69;64.35;99484.44;2020660;28;2841891;-74
2023/03/08 02:29:41;;;;;;;;;23.00;21.33;;;;;8.70;64.78;99480.88;1999494;27;3556530;-74
2023/03/08 02:30:53;;;;;;;;;25.33;22.00;;;;;8.70;64.87;99475.63;2046500;27;3581882;-74
2023/03/08 02:32:05;;;;;;;;;23.00;20.33;;;;;8.69;64.50;99471.34;2031571;27;3585660;-74
2023/03/08 02:33:17;;;;;;;;;20.00;19.67;;;;;8.67;64.99;99465.28;2023552;28;3571089;-74
2023/03/08 02:34:29;;;;;;;;;23.33;18.67;;;;;8.66;65.05;99469.69;2016054;28;3568971;-74
2023/03/08 02:35:42;;;;;;;;;22.00;19.40;;;;;8.67;64.79;99465.28;2044611;28;3572065;-75
2023/03/08 02:36:54;;;;;;;;;25.00;21.67;;;;;8.67;64.85;99454.81;2024522;28;3572114;-74
2023/03/08 02:38:06;;;;;;;;;24.80;21.80;;;;;8.66;65.17;99450.50;2044761;28;3577298;-74
2023/03/08 02:39:18;;;;;;;;;23.00;20.00;;;;;8.65;64.92;99449.66;2041458;28;3579410;-74
2023/03/08 02:40:29;;;;;;;;;27.33;21.67;;;;;8.63;65.19;99435.78;2033031;28;3587732;-74
2023/03/08 02:41:41;;;;;;;;;23.67;20.00;;;;;8.63;64.81;99432.31;2040698;28;3578853;-74
2023/03/08 02:42:55;;;;;;;;;21.80;18.60;;;;;8.63;65.38;99421.81;2046126;28;3572099;-74
2023/03/08 02:44:08;;;;;;;;;22.00;18.33;;;;;8.64;64.88;99426.16;2043059;28;1843988;-73
2023/03/08 02:45:19;;;;;;;;;23.67;19.67;;;;;8.64;65.16;99418.31;1999085;28;3568934;-74
2023/03/08 02:46:30;;;;;;;;;16.00;14.00;;;;;8.64;65.03;99415.69;2041875;28;2800263;-74
2023/03/08 02:47:42;;;;;;;;;22.00;19.33;;;;;8.64;65.20;99413.88;2016658;27;3552309;-74
2023/03/08 02:48:54;;;;;;;;;23.33;21.33;;;;;8.65;65.77;99412.13;2041941;27;3575236;-74
2023/03/08 02:50:07;;;;;;;;;25.00;21.00;;;;;8.64;65.36;99405.19;2039092;28;3584602;-74
2023/03/08 02:51:19;;;;;;;;;24.33;21.00;;;;;8.64;65.42;99395.56;2023534;27;3577300;-74
2023/03/08 02:52:31;;;;;;;;;25.67;21.67;;;;;8.63;65.76;99393.88;2033636;28;3579386;-73
2023/03/08 02:53:43;;;;;;;;;24.60;18.40;;;;;8.65;65.08;99404.25;2045711;27;3573101;-74
2023/03/08 02:54:54;;;;;;;;;23.00;21.33;;;;;8.64;65.36;99397.34;2041013;28;3577319;-74
2023/03/08 02:56:07;;;;;;;;;23.67;19.67;;;;;8.66;65.79;99390.25;2041224;27;3574191;-73
2023/03/08 02:57:19;;;;;;;;;21.40;16.80;;;;;8.64;65.19;99389.50;2038813;28;3560680;-74
2023/03/08 02:58:30;;;;;;;;;15.00;15.00;;;;;8.64;65.33;99381.63;2024768;28;3550260;-73
2023/03/08 02:59:42;;;;;;;;;23.67;19.67;;;;;8.65;65.68;99378.06;2041124;28;3576616;-74
2023/03/08 03:00:55;;;;;;;;;27.33;22.33;;;;;8.66;66.21;99380.63;2048728;27;3581502;-73
2023/03/08 03:02:06;;;;;;;;;23.00;20.00;;;;;8.66;65.61;99370.16;2029774;27;3575263;-73
2023/03/08 03:03:18;;;;;;;;;21.67;20.33;;;;;8.67;65.22;99365.75;2037068;28;3581485;-74
2023/03/08 03:04:31;;;;;;;;;21.20;20.20;;;;;8.69;65.74;99358.69;2045124;28;3572084;-74
2023/03/08 03:05:43;;;;;;;;;23.33;18.33;;;;;8.69;65.85;99356.06;2029899;27;2831632;-74
2023/03/08 03:06:54;;;;;;;;;24.33;19.67;;;;;8.68;65.55;99349.13;2029794;27;3567967;-74
2023/03/08 03:08:05;;;;;;;;;23.75;19.50;;;;;8.68;65.92;99333.41;2044537;28;1843097;-73
2023/03/08 03:09:17;;;;;;;;;25.67;19.00;;;;;8.69;65.43;99342.13;2000791;28;3585690;-73
2023/03/08 03:10:29;;;;;;;;;24.67;22.00;;;;;8.69;65.68;99329.88;2033357;28;3575224;-74
2023/03/08 03:11:41;;;;;;;;;21.67;17.67;;;;;8.69;65.80;99316.78;2039707;28;3570024;-74
2023/03/08 03:12:53;;;;;;;;;25.33;19.00;;;;;8.69;65.73;99308.91;2032926;28;3581475;-73
2023/03/08 03:14:04;;;;;;;;;24.00;19.33;;;;;8.69;65.68;99306.31;2035090;28;3570035;-74
2023/03/08 03:15:16;;;;;;;;;23.00;20.00;;;;;8.70;65.40;99305.34;2040816;27;3581875;-74
2023/03/08 03:16:27;;;;;;;;;20.00;14.50;;;;;8.70;65.80;99294.88;2040450;27;2806863;-74
2023/03/08 03:17:39;;;;;;;;;25.67;23.00;;;;;8.69;65.85;99287.97;2011787;27;3573229;-74
2023/03/08 03:18:55;;;;;;;;;21.33;18.00;;;;;8.71;65.34;99287.88;2033371;28;3571073;-74
2023/03/08 03:20:08;;;;;;;;;22.00;21.00;;;;;8.71;65.83;99286.09;2015714;28;3577328;-74
2023/03/08 03:21:19;;;;;;;;;23.67;20.00;;;;;8.70;65.89;99271.31;2022408;28;3570030;-74
2023/03/08 03:22:31;;;;;;;;;22.00;19.00;;;;;8.70;65.86;99273.91;2028248;27;3564823;-74
2023/03/08 03:23:43;;;;;;;;;23.00;16.33;;;;;8.70;66.02;99271.31;2025871;27;3583568;-74
2023/03/08 03:24:54;;;;;;;;;15.50;13.50;;;;;8.70;65.88;99275.69;2040827;27;2811096;-74
2023/03/08 03:26:11;;;;;;;;;22.67;18.00;;;;;8.69;65.78;99276.63;2040646;27;3569006;-74
2023/03/08 03:27:23;;;;;;;;;22.67;20.00;;;;;8.69;65.61;99279.25;2024126;27;3574179;-75
2023/03/08 03:28:34;;;;;;;;;17.33;17.00;;;;;8.69;65.90;99271.38;2033947;28;2827470;-74
2023/03/08 03:29:47;;;;;;;;;24.33;19.67;;;;;8.66;65.96;99270.63;2024444;27;3569010;-74
2023/03/08 03:30:57;;;;;;;;;26.00;19.50;;;;;8.66;66.45;99264.53;2024031;27;2841963;-74
2023/03/08 03:32:08;;;;;;;;;16.00;15.00;;;;;8.64;65.96;99251.50;2016774;27;2812715;-74
2023/03/08 03:33:20;;;;;;;;;19.00;18.00;;;;;8.63;66.22;99246.34;2006986;28;3562167;-74
2023/03/08 03:34:32;;;;;;;;;23.00;18.67;;;;;8.64;65.86;99238.38;2035143;28;3578352;-74
2023/03/08 03:35:43;;;;;;;;;19.75;17.75;;;;;8.64;66.36;99230.53;2050347;27;1833714;-74
2023/03/08 03:36:55;;;;;;;;;22.00;19.67;;;;;8.63;66.05;99239.34;1999685;28;3577330;-74
2023/03/08 03:38:06;;;;;;;;;21.00;18.67;;;;;8.63;66.44;99223.63;2027906;28;2831602;-74
2023/03/08 03:39:18;;;;;;;;;19.67;17.67;;;;;8.64;66.51;99234.94;2016282;28;3567964;-74
2023/03/08 03:40:29;;;;;;;;;20.60;16.80;;;;;8.62;66.21;99221.06;2049270;28;1832712;-74
2023/03/08 03:41:41;;;;;;;;;21.67;18.67;;;;;8.64;66.21;99232.31;2015732;28;3573145;-74
2023/03/08 03:42:52;;;;;;;;;18.00;16.00;;;;;8.64;66.17;99229.72;2042769;28;1829530;-74
2023/03/08 03:44:03;;;;;;;;;18.00;17.00;;;;;8.64;66.43;99211.38;1992983;28;2829416;-74
2023/03/08 03:45:16;;;;;;;;;17.00;16.00;;;;;8.64;66.42;99211.38;2019533;28;1831527;-74
2023/03/08 03:46:29;;;;;;;;;20.50;17.00;;;;;8.64;66.22;99208.75;2028755;28;1824256;-74
2023/03/08 03:47:43;;;;;;;;;16.33;15.67;;;;;8.65;66.41;99213.06;2029389;27;1842034;-74
2023/03/08 03:48:53;;;;;;;;;18.00;14.00;;;;;8.64;66.58;99203.50;1999620;27;2814857;-74
2023/03/08 03:50:05;;;;;;;;;19.00;15.25;;;;;8.64;66.75;99199.09;2026952;27;1839855;-74
2023/03/08 03:51:20;;;;;;;;;18.20;18.20;;;;;8.64;66.55;99186.00;2016547;28;2823218;-74
2023/03/08 03:52:30;;;;;;;;;15.50;13.00;;;;;8.64;66.73;99179.94;2002150;27;2802334;-74
2023/03/08 03:53:42;;;;;;;;;22.75;16.75;;;;;8.62;66.15;99174.75;2028697;27;1859809;-74
2023/03/08 03:54:53;;;;;;;;;20.00;18.00;;;;;8.61;66.12;99175.72;2015577;28;2824208;-74
2023/03/08 03:56:09;;;;;;;;;21.60;14.00;;;;;8.62;66.83;99173.91;2026644;28;1837852;-74
2023/03/08 03:57:19;;;;;;;;;18.50;16.00;;;;;8.60;66.66;99167.91;2017922;28;2825261;-74
2023/03/08 03:58:31;;;;;;;;;22.00;17.67;;;;;8.60;66.51;99158.28;2016942;28;3558574;-74
2023/03/08 03:59:43;;;;;;;;;17.67;15.33;;;;;8.60;66.99;99158.28;2029135;28;3546094;-74
2023/03/08 04:00:55;;;;;;;;;21.67;17.67;;;;;8.61;66.63;99153.91;2038941;28;3564835;-74
2023/03/08 04:02:06;;;;;;;;;17.50;13.00;;;;;8.61;66.57;99151.28;2039544;28;2801321;-74
2023/03/08 04:03:18;;;;;;;;;21.33;17.33;;;;;8.61;66.88;99143.41;2009467;28;3565852;-74
2023/03/08 04:04:29;;;;;;;;;18.50;15.00;;;;;8.60;66.70;99149.56;2033750;28;2823174;-74
2023/03/08 04:05:40;;;;;;;;;15.00;14.00;;;;;8.61;66.91;99156.50;2017126;28;2807538;-74
2023/03/08 04:06:51;;;;;;;;;17.50;16.50;;;;;8.61;66.51;99144.28;2040288;28;2819024;-74
2023/03/08 04:08:02;;;;;;;;;22.00;15.00;;;;;8.62;66.79;99135.47;2015651;28;2831480;-74
2023/03/08 04:09:16;;;;;;;;;12.50;11.25;;;;;8.62;66.54;99139.84;2025630;28;1840966;-75
2023/03/08 04:10:27;;;;;;;;;15.50;14.00;;;;;8.62;66.73;99134.63;2023386;28;2797622;-74
2023/03/08 04:11:39;;;;;;;;;16.00;13.50;;;;;8.60;66.63;99126.84;2042759;27;2801329;-74
2023/03/08 04:12:51;;;;;;;;;17.50;14.00;;;;;8.60;66.79;99134.72;1999878;27;2811705;-75
2023/03/08 04:14:03;;;;;;;;;14.50;14.50;;;;;8.60;66.98;99129.47;2014501;27;1837831;-75
2023/03/08 04:15:13;;;;;;;;;13.00;12.00;;;;;8.59;67.52;99126.94;2024016;27;2791915;-74
2023/03/08 04:16:27;;;;;;;;;12.50;12.00;;;;;8.56;66.66;99120.06;2041299;27;2789859;-74
2023/03/08 04:17:37;;;;;;;;;15.00;12.00;;;;;8.54;67.07;99114.06;2008777;27;2792001;-74
2023/03/08 04:18:53;;;;;;;;;19.00;11.50;;;;;8.55;66.84;99113.97;2016710;27;2807545;-74
2023/03/08 04:20:05;;;;;;;;;15.00;12.00;;;;;8.53;67.57;99115.81;2000158;28;2796085;-74
2023/03/08 04:21:15;;;;;;;;;19.00;13.00;;;;;8.51;67.31;99104.56;2023907;27;2811745;-74
2023/03/08 04:22:26;;;;;;;;;11.00;11.00;;;;;8.50;67.06;99108.09;2041639;27;2790231;-75
2023/03/08 04:23:37;;;;;;;;;13.50;13.50;;;;;8.50;67.58;99107.25;2042192;27;2802315;-74
2023/03/08 04:24:49;;;;;;;;;13.50;13.50;;;;;8.47;67.33;99103.00;2051851;28;1848209;-74
2023/03/08 04:26:03;;;;;;;;;12.33;11.83;;;;;8.48;67.10;99109.09;2053691;28;1827460;-75
2023/03/08 04:27:14;;;;;;;;;14.00;11.50;;;;;8.47;67.70;99110.88;2009035;28;1841997;-75
2023/03/08 04:28:26;;;;;;;;;17.25;12.75;;;;;8.47;67.60;99113.50;2034466;28;1846127;-75
2023/03/08 04:29:37;;;;;;;;;10.00;10.00;;;;;8.46;67.67;99121.44;2029543;28;3509626;-74
2023/03/08 04:30:48;;;;;;;;;11.00;11.00;;;;;8.44;68.08;99097.97;2040124;28;2789863;-75
2023/03/08 04:31:59;;;;;;;;;10.33;9.33;;;;;8.43;67.91;99091.88;2043013;27;3488797;-74
2023/03/08 04:33:10;;;;;;;;;14.00;10.00;;;;;8.44;67.71;99108.44;2039820;28;2791926;-75
2023/03/08 04:34:21;;;;;;;;;10.33;9.67;;;;;8.44;67.93;99116.28;2041954;28;3485623;-74
2023/03/08 04:35:31;;;;;;;;;11.67;11.00;;;;;8.43;68.24;99106.72;2041061;28;3515859;-74
2023/03/08 04:36:43;;;;;;;;;14.33;11.33;;;;;8.40;68.12;99102.50;2040630;27;3538783;-74
2023/03/08 04:37:53;;;;;;;;;13.50;11.00;;;;;8.42;67.78;99105.03;2015821;27;2791994;-74
2023/03/08 04:39:05;;;;;;;;;15.00;11.00;;;;;8.41;67.95;99105.97;2054376;28;1823294;-74
2023/03/08 04:40:15;;;;;;;;;10.00;10.00;;;;;8.42;67.67;99091.97;2001104;28;3507537;-74
2023/03/08 04:41:26;;;;;;;;;11.50;10.50;;;;;8.44;67.96;99087.50;2034913;28;2790237;-74
2023/03/08 04:42:39;;;;;;;;;10.00;10.00;;;;;8.44;67.55;99084.88;2032870;28;2791910;-74
2023/03/08 04:43:55;;;;;;;;;9.67;9.67;;;;;8.46;68.10;99088.25;2015935;28;2775276;-74
2023/03/08 04:45:07;;;;;;;;;8.33;7.67;;;;;8.46;68.11;99093.47;2022016;28;3455448;-74
2023/03/08 04:46:24;;;;;;;;;13.25;10.75;;;;;8.45;68.11;99094.41;2038445;28;1836728;-75
2023/03/08 04:47:34;;;;;;;;;12.00;10.00;;;;;8.44;67.80;99077.84;2032113;27;3512769;-74
2023/03/08 04:48:45;;;;;;;;;11.33;11.00;;;;;8.45;67.67;99076.06;2043682;27;3512076;-74
2023/03/08 04:49:56;;;;;;;;;9.00;9.00;;;;;8.48;68.07;99072.44;2026221;28;2744441;-74
2023/03/08 04:51:09;;;;;;;;;9.33;9.33;;;;;8.48;67.72;99073.31;2050914;27;2751335;-75
2023/03/08 04:52:20;;;;;;;;;10.00;10.00;;;;;8.48;68.45;99073.31;2001262;27;3495038;-74
2023/03/08 04:53:31;;;;;;;;;12.00;9.50;;;;;8.48;68.43;99083.78;2039366;27;2779442;-74
2023/03/08 04:54:42;;;;;;;;;12.33;10.00;;;;;8.49;68.91;99080.25;2023171;28;3506867;-74
2023/03/08 04:55:53;;;;;;;;;7.33;7.33;;;;;8.47;68.56;99079.44;2045852;27;2735717;-74
2023/03/08 04:57:06;;;;;;;;;9.67;8.17;;;;;8.47;68.41;99060.31;2029153;28;2733604;-74
2023/03/08 04:58:17;;;;;;;;;9.00;7.67;;;;;8.47;68.18;99058.50;2023292;28;3458646;-74
2023/03/08 04:59:30;;;;;;;;;9.50;8.50;;;;;8.47;68.49;99062.91;2050747;28;2752387;-74
2023/03/08 05:00:44;;;;;;;;;8.83;8.83;;;;;8.46;68.39;99072.53;2052128;27;2741927;-74
2023/03/08 05:01:57;;;;;;;;;8.83;7.83;;;;;8.46;68.05;99062.06;2052079;27;2729444;-74
2023/03/08 05:03:12;;;;;;;;;7.83;7.83;;;;;8.47;68.40;99057.69;2050753;28;2742982;-74
2023/03/08 05:04:25;;;;;;;;;9.00;9.00;;;;;8.47;68.36;99053.25;2052463;27;2740336;-75
2023/03/08 05:05:46;;;;;;;;;9.33;7.00;;;;;8.49;68.64;99058.44;2049577;28;2756537;-74
2023/03/08 05:06:57;;;;;;;;;7.00;7.00;;;;;8.48;68.51;99054.97;2019628;28;2737781;-75
2023/03/08 05:08:08;;;;;;;;;8.33;6.67;;;;;8.49;68.56;99056.69;2051850;27;2733619;-74
2023/03/08 05:09:21;;;;;;;;;8.50;7.00;;;;;8.52;68.53;99047.81;2058717;27;2744039;-74
2023/03/08 05:10:34;;;;;;;;;10.17;8.50;;;;;8.54;68.07;99046.78;2051695;27;2760703;-75
2023/03/08 05:11:45;;;;;;;;;10.33;8.00;;;;;8.55;68.42;99030.16;2000741;27;2758690;-74
2023/03/08 05:12:56;;;;;;;;;10.33;9.00;;;;;8.59;68.42;99048.38;2040778;27;3481529;-74
2023/03/08 05:14:08;;;;;;;;;7.00;6.20;;;;;8.60;68.70;99047.44;2051452;27;2736762;-75
2023/03/08 05:15:25;;;;;;;;;6.50;6.50;;;;;8.63;68.91;99052.50;2052023;27;2739353;-75
2023/03/08 05:16:38;;;;;;;;;7.83;6.83;;;;;8.62;68.57;99041.19;2052330;28;2732549;-75
2023/03/08 05:17:51;;;;;;;;;9.33;7.50;;;;;8.63;68.85;99035.03;2050828;28;2737778;-74
2023/03/08 05:19:04;;;;;;;;;8.33;7.67;;;;;8.64;69.22;99035.88;2028701;28;2728391;-75
2023/03/08 05:20:15;;;;;;;;;8.33;7.33;;;;;8.65;69.23;99040.19;2024781;27;2746505;-74
2023/03/08 05:21:27;;;;;;;;;6.75;6.75;;;;;8.65;69.14;99037.56;2051206;27;2733599;-75
2023/03/08 05:22:40;;;;;;;;;3.00;2.50;;;;;8.63;68.51;99031.56;2047537;27;2750796;-74
2023/03/08 05:23:53;;;;;;;;;7.83;7.00;;;;;8.63;69.01;99031.56;2051574;27;2734637;-74
2023/03/08 05:25:06;;;;;;;;;8.33;6.67;;;;;8.64;68.84;99025.41;2058767;27;2739878;-74
2023/03/08 05:26:20;;;;;;;;;10.00;7.17;;;;;8.65;69.11;99021.84;2045654;27;2756546;-74
2023/03/08 05:27:32;;;;;;;;;9.00;6.00;;;;;8.66;68.89;99028.78;1994387;28;3461718;-74
2023/03/08 05:28:45;;;;;;;;;8.67;7.50;;;;;8.66;69.29;99015.69;2048115;28;2744063;-75
2023/03/08 05:29:59;;;;;;;;;5.00;5.00;;;;;8.68;69.11;99010.38;2050927;28;2742980;-74
2023/03/08 05:31:18;;;;;;;;;6.00;6.00;;;;;8.70;68.94;99013.75;2046483;28;2734667;-75